Time;durP1;ratioP1;P1;durP2;ratioP2;P2;SDS_P1;SDS_P2;PMS_P1;PMS_P2;Temp;Humidity;BMP_temperature;BMP_pressure;BME280_temperature;BME280_humidity;BME280_pressure;Samples;Min_cycle;Max_cycle;Signal;HPM_P1;HPM_P2
2023/03/06 00:01:57;;;;;;;2.27;0.80;;;3.50;99.90;;;;;;5026428;28;20480;-80
2023/03/06 00:04:24;;;;;;;2.50;1.30;;;3.40;99.90;;;;;;5023895;28;20052;-81
2023/03/06 00:06:50;;;;;;;2.47;0.90;;;3.30;99.90;;;;;;5007891;28;20666;-75
2023/03/06 00:09:16;;;;;;;3.80;1.10;;;3.30;99.90;;;;;;5008535;28;20040;-79
2023/03/06 00:11:42;;;;;;;5.57;1.40;;;3.20;99.90;;;;;;5026159;28;20041;-81
2023/03/06 00:14:09;;;;;;;2.57;1.30;;;3.20;99.90;;;;;;5021688;28;20388;-80
2023/03/06 00:16:35;;;;;;;3.20;1.37;;;3.10;99.90;;;;;;5022930;28;21099;-75
2023/03/06 00:19:01;;;;;;;1.97;0.87;;;3.10;99.90;;;;;;5010511;28;20036;-76
2023/03/06 00:21:28;;;;;;;3.03;1.00;;;3.00;99.90;;;;;;5012951;28;20032;-77
2023/03/06 00:23:54;;;;;;;4.13;1.20;;;3.00;99.90;;;;;;5027037;28;21187;-75
2023/03/06 00:26:20;;;;;;;3.33;1.20;;;2.90;99.90;;;;;;5030503;28;20051;-78
2023/03/06 00:28:47;;;;;;;3.97;1.10;;;2.90;99.90;;;;;;4999239;28;20159;-77
2023/03/06 00:31:16;;;;;;;2.37;0.90;;;2.80;99.90;;;;;;5030781;28;20372;-79
2023/03/06 00:33:42;;;;;;;2.63;1.00;;;2.80;99.90;;;;;;5026453;28;20045;-76
2023/03/06 00:36:10;;;;;;;1.60;0.80;;;2.80;99.90;;;;;;5015382;28;20049;-80
2023/03/06 00:38:36;;;;;;;3.70;1.00;;;2.80;99.90;;;;;;5033110;28;20025;-77
2023/03/06 00:41:10;;;;;;;2.90;1.20;;;2.70;99.90;;;;;;5032851;28;20040;-79
2023/03/06 00:43:37;;;;;;;1.57;0.80;;;2.70;99.90;;;;;;4995622;28;20450;-76
2023/03/06 00:46:04;;;;;;;2.63;1.57;;;2.70;99.90;;;;;;5028842;28;20037;-78
2023/03/06 00:48:32;;;;;;;2.27;1.23;;;2.60;99.90;;;;;;5031845;28;20037;-74
2023/03/06 00:51:00;;;;;;;2.63;0.93;;;2.60;99.90;;;;;;5000348;28;20036;-80
2023/03/06 00:53:26;;;;;;;1.63;0.80;;;2.50;99.90;;;;;;4996599;28;20517;-75
2023/03/06 00:55:52;;;;;;;3.67;1.10;;;2.50;99.90;;;;;;5031286;28;20048;-76
2023/03/06 00:58:19;;;;;;;1.90;1.03;;;2.50;99.90;;;;;;5031111;28;20363;-75
2023/03/06 01:00:45;;;;;;;4.60;0.93;;;2.40;99.90;;;;;;5016598;28;20158;-77
2023/03/06 01:03:11;;;;;;;2.67;0.97;;;2.40;99.90;;;;;;5012095;28;20571;-76
2023/03/06 01:05:38;;;;;;;3.80;0.70;;;2.40;99.90;;;;;;4997689;28;20055;-78
2023/03/06 01:08:07;;;;;;;1.97;0.93;;;2.30;99.90;;;;;;5029189;28;20036;-76
2023/03/06 01:10:37;;;;;;;4.00;0.83;;;2.30;99.90;;;;;;5031589;28;20028;-79
2023/03/06 01:13:03;;;;;;;3.03;0.80;;;2.30;99.90;;;;;;5028718;28;20068;-74
2023/03/06 01:15:30;;;;;;;1.50;0.80;;;2.30;99.90;;;;;;5027179;28;20045;-78
2023/03/06 01:17:57;;;;;;;1.93;0.80;;;2.30;99.90;;;;;;5015678;28;20036;-79
2023/03/06 01:20:24;;;;;;;3.47;1.00;;;2.30;99.90;;;;;;5015966;28;20040;-75
2023/03/06 01:22:50;;;;;;;2.47;1.30;;;2.30;99.90;;;;;;5032413;28;20408;-77
2023/03/06 01:25:17;;;;;;;2.63;1.30;;;2.30;99.90;;;;;;5013106;28;20496;-79
2023/03/06 01:27:43;;;;;;;3.83;1.70;;;2.30;99.90;;;;;;5013616;28;20036;-77
2023/03/06 01:30:11;;;;;;;3.13;1.77;;;2.30;99.90;;;;;;5011577;28;20041;-80
2023/03/06 01:32:38;;;;;;;3.70;1.40;;;2.30;99.90;;;;;;5027620;28;20044;-78
2023/03/06 01:35:05;;;;;;;3.03;1.30;;;2.30;99.90;;;;;;5008592;28;20647;-75
2023/03/06 01:37:35;;;;;;;3.60;1.50;;;2.30;99.90;;;;;;5029383;28;20040;-74
2023/03/06 01:40:03;;;;;;;3.50;1.43;;;2.30;99.90;;;;;;5027151;28;20040;-78
2023/03/06 01:42:30;;;;;;;2.90;1.33;;;2.30;99.90;;;;;;5010809;28;20028;-76
2023/03/06 01:45:04;;;;;;;2.97;1.33;;;2.30;99.90;;;;;;4989967;28;20466;-77
2023/03/06 01:47:30;;;;;;;3.43;1.40;;;2.30;99.90;;;;;;5027020;28;20029;-77
2023/03/06 01:49:57;;;;;;;3.30;1.80;;;2.30;99.90;;;;;;5010076;28;20472;-77
2023/03/06 01:52:29;;;;;;;2.63;1.20;;;2.30;99.90;;;;;;5027631;28;20044;-76
2023/03/06 01:55:07;;;;;;;3.38;1.00;;;2.30;99.90;;;;;;5025431;28;20051;-79
2023/03/06 01:57:42;;;;;;;5.00;1.97;;;2.30;99.90;;;;;;5028266;28;20044;-77
2023/03/06 02:00:13;;;;;;;3.97;1.30;;;2.30;99.90;;;;;;5031880;28;20446;-80
2023/03/06 02:02:43;;;;;;;2.27;1.20;;;2.30;99.90;;;;;;5029282;28;20024;-78
2023/03/06 02:05:10;;;;;;;4.20;3.03;;;2.30;99.90;;;;;;5010993;28;20036;-78
2023/03/06 02:07:38;;;;;;;3.13;1.63;;;2.30;99.90;;;;;;5011860;28;20956;-76
2023/03/06 02:10:05;;;;;;;3.93;2.40;;;2.30;99.90;;;;;;5031057;28;20037;-79
2023/03/06 02:12:32;;;;;;;2.90;1.80;;;2.30;99.90;;;;;;5014215;28;20037;-74
2023/03/06 02:14:59;;;;;;;4.23;2.30;;;2.30;99.90;;;;;;5026711;28;20068;-77
2023/03/06 02:17:27;;;;;;;4.70;2.97;;;2.30;99.90;;;;;;5030413;28;20032;-77
2023/03/06 02:20:15;;;;;;;2.97;2.10;;;2.20;99.90;;;;;;4997247;28;20052;-77
2023/03/06 02:22:56;;;;;;;8.67;4.20;;;2.20;99.90;;;;;;5031204;28;20048;-78
2023/03/06 02:25:37;;;;;;;6.23;4.47;;;2.20;99.90;;;;;;5030350;28;20043;-75
2023/03/06 02:28:05;;;;;;;4.37;2.53;;;2.20;99.90;;;;;;5011189;28;20037;-75
2023/03/06 02:30:32;;;;;;;6.33;3.70;;;2.20;99.90;;;;;;5030611;28;20368;-79
2023/03/06 02:33:00;;;;;;;6.03;3.30;;;2.20;99.90;;;;;;5010287;28;20040;-74
2023/03/06 02:35:29;;;;;;;5.80;3.10;;;2.10;99.90;;;;;;5012267;28;20675;-80
2023/03/06 02:37:58;;;;;;;4.53;2.97;;;2.10;99.90;;;;;;5029528;28;20070;-74
2023/03/06 02:40:25;;;;;;;8.03;4.30;;;2.10;99.90;;;;;;5014232;28;20043;-75
2023/03/06 02:42:56;;;;;;;7.40;5.20;;;2.10;99.90;;;;;;5011243;28;20040;-77
2023/03/06 02:45:27;;;;;;;6.03;4.27;;;2.10;99.90;;;;;;5029185;28;20033;-73
2023/03/06 02:47:54;;;;;;;7.60;4.30;;;2.00;99.90;;;;;;5026235;28;20055;-73
2023/03/06 02:50:20;;;;;;;6.90;4.87;;;2.00;99.90;;;;;;5029433;28;20487;-78
2023/03/06 02:52:47;;;;;;;11.17;6.17;;;2.00;99.90;;;;;;5011662;28;20041;-78
2023/03/06 02:55:14;;;;;;;9.10;5.17;;;1.90;99.90;;;;;;5010877;28;20045;-74
2023/03/06 02:57:40;;;;;;;9.57;6.20;;;1.90;99.90;;;;;;4996296;28;20032;-74
2023/03/06 03:00:07;;;;;;;9.77;6.33;;;1.90;99.90;;;;;;4996984;28;20037;-79
2023/03/06 03:02:35;;;;;;;10.60;6.93;;;1.80;99.90;;;;;;5014635;28;20482;-77
2023/03/06 03:05:01;;;;;;;12.60;8.03;;;1.80;99.90;;;;;;5027144;28;20419;-79
2023/03/06 03:07:29;;;;;;;6.40;4.53;;;1.80;99.90;;;;;;5028063;28;20041;-76
2023/03/06 03:09:55;;;;;;;9.53;6.27;;;1.80;99.90;;;;;;5030583;28;20033;-78
2023/03/06 03:12:22;;;;;;;11.70;7.97;;;1.80;99.90;;;;;;4998010;28;20048;-75
2023/03/06 03:14:48;;;;;;;11.37;8.20;;;1.80;99.90;;;;;;5024856;28;20150;-75
2023/03/06 03:17:15;;;;;;;11.40;7.97;;;1.80;99.90;;;;;;5026900;28;20041;-74
2023/03/06 03:19:41;;;;;;;9.93;7.40;;;1.80;99.90;;;;;;4997224;28;20040;-79
2023/03/06 03:22:09;;;;;;;11.43;8.33;;;1.80;99.90;;;;;;5028797;28;20122;-81
2023/03/06 03:24:35;;;;;;;13.63;9.07;;;1.90;99.90;;;;;;5008905;28;20585;-77
2023/03/06 03:27:02;;;;;;;12.07;8.33;;;1.90;99.90;;;;;;5028137;28;20212;-77
2023/03/06 03:29:28;;;;;;;8.57;6.83;;;1.90;99.90;;;;;;5027488;28;20028;-79
2023/03/06 03:31:55;;;;;;;12.93;7.00;;;1.90;99.90;;;;;;5012749;28;20059;-79
2023/03/06 03:34:25;;;;;;;10.80;6.97;;;1.90;99.90;;;;;;5024490;28;20060;-75
2023/03/06 03:36:52;;;;;;;15.80;9.53;;;2.00;99.90;;;;;;5011833;28;20056;-81
2023/03/06 03:39:19;;;;;;;12.50;8.53;;;2.00;99.90;;;;;;5029891;28;20055;-77
2023/03/06 03:41:45;;;;;;;10.23;7.50;;;2.00;99.90;;;;;;5030950;28;20047;-78
2023/03/06 03:44:12;;;;;;;13.30;8.90;;;2.00;99.90;;;;;;5023821;28;20029;-77
2023/03/06 03:46:39;;;;;;;17.00;11.47;;;2.10;99.90;;;;;;5008309;28;20376;-80
2023/03/06 03:49:10;;;;;;;14.50;9.30;;;2.10;99.90;;;;;;5010566;28;20507;-79
2023/03/06 03:51:37;;;;;;;17.77;10.80;;;2.10;99.90;;;;;;5027511;28;20036;-79
2023/03/06 03:54:05;;;;;;;15.73;11.10;;;2.20;99.90;;;;;;4988074;28;20040;-80
2023/03/06 03:56:35;;;;;;;14.63;10.37;;;2.20;99.90;;;;;;5025321;28;20537;-75
2023/03/06 03:59:08;;;;;;;20.53;14.20;;;2.20;99.90;;;;;;4996351;28;20479;-78
2023/03/06 04:01:42;;;;;;;13.27;10.20;;;2.20;99.90;;;;;;5026485;28;20043;-79
2023/03/06 04:04:08;;;;;;;18.77;12.60;;;2.30;99.90;;;;;;4991012;28;20592;-75
2023/03/06 04:06:35;;;;;;;21.40;14.20;;;2.30;99.90;;;;;;5010887;28;20052;-79
2023/03/06 04:09:03;;;;;;;20.27;13.93;;;2.40;99.90;;;;;;5009811;28;20025;-77
2023/03/06 04:11:30;;;;;;;18.40;12.73;;;2.40;99.90;;;;;;5013582;28;20037;-77
2023/03/06 04:13:56;;;;;;;14.40;10.23;;;2.40;99.90;;;;;;5023750;28;20033;-75
2023/03/06 04:16:23;;;;;;;15.90;11.30;;;2.50;99.90;;;;;;4992519;28;20049;-73
2023/03/06 04:18:50;;;;;;;15.27;9.83;;;2.50;99.90;;;;;;5027079;28;20512;-77
2023/03/06 04:21:17;;;;;;;12.63;9.30;;;2.50;99.90;;;;;;5028953;28;20044;-80
2023/03/06 04:23:43;;;;;;;15.37;10.17;;;2.50;99.90;;;;;;5024300;28;20305;-78
2023/03/06 04:26:09;;;;;;;18.73;13.03;;;2.50;99.90;;;;;;4994244;28;20039;-77
2023/03/06 04:28:36;;;;;;;18.13;12.03;;;2.50;99.90;;;;;;5009765;28;20029;-77
2023/03/06 04:31:02;;;;;;;11.17;7.97;;;2.50;99.90;;;;;;5014034;28;20033;-80
2023/03/06 04:33:30;;;;;;;13.80;9.43;;;2.50;99.90;;;;;;4993184;28;20046;-78
2023/03/06 04:35:57;;;;;;;14.63;9.17;;;2.60;99.90;;;;;;5027977;28;20036;-74
2023/03/06 04:38:27;;;;;;;18.63;11.50;;;2.60;99.90;;;;;;5030533;28;20040;-76
2023/03/06 04:40:53;;;;;;;13.97;9.70;;;2.60;99.90;;;;;;4998801;28;20056;-73
2023/03/06 04:43:20;;;;;;;14.03;10.20;;;2.60;99.90;;;;;;5009333;28;20037;-77
2023/03/06 04:45:46;;;;;;;17.33;11.87;;;2.60;99.90;;;;;;5011187;28;20052;-78
2023/03/06 04:48:15;;;;;;;15.37;11.70;;;2.60;99.90;;;;;;5008898;28;20032;-80
2023/03/06 04:50:43;;;;;;;13.57;10.20;;;2.70;99.90;;;;;;5031834;28;20571;-79
2023/03/06 04:53:09;;;;;;;12.57;9.37;;;2.70;99.90;;;;;;5008316;28;20456;-80
2023/03/06 04:55:36;;;;;;;17.53;11.63;;;2.70;99.90;;;;;;4996023;28;20032;-75
2023/03/06 04:58:02;;;;;;;13.13;10.43;;;2.70;99.90;;;;;;5027393;28;20032;-79
2023/03/06 05:00:30;;;;;;;12.50;9.13;;;2.70;99.90;;;;;;5014584;28;20040;-79
2023/03/06 05:02:58;;;;;;;17.13;11.63;;;2.80;99.90;;;;;;5025560;28;20483;-76
2023/03/06 05:05:25;;;;;;;15.83;10.57;;;2.80;99.90;;;;;;5046700;28;20040;-78
2023/03/06 05:07:52;;;;;;;15.47;11.67;;;2.80;99.90;;;;;;5012556;28;21085;-77
2023/03/06 05:10:19;;;;;;;14.07;10.77;;;2.80;99.90;;;;;;5047699;28;20044;-80
2023/03/06 05:12:45;;;;;;;13.77;10.03;;;2.80;99.90;;;;;;5029781;28;20472;-79
2023/03/06 05:15:13;;;;;;;12.77;10.10;;;2.80;99.90;;;;;;5029040;28;20053;-76
2023/03/06 05:17:39;;;;;;;16.13;10.73;;;2.80;99.90;;;;;;5028744;28;20484;-78
2023/03/06 05:20:09;;;;;;;15.87;10.40;;;2.90;99.90;;;;;;5014268;28;20041;-74
2023/03/06 05:22:36;;;;;;;18.50;12.47;;;2.80;99.90;;;;;;5029534;28;20028;-75
2023/03/06 05:25:03;;;;;;;12.70;9.13;;;2.90;99.90;;;;;;5010149;28;20040;-74
2023/03/06 05:27:30;;;;;;;16.10;11.53;;;2.90;99.90;;;;;;5029820;28;20029;-78
2023/03/06 05:29:56;;;;;;;12.33;8.77;;;2.90;99.90;;;;;;5031141;28;20041;-75
2023/03/06 05:32:23;;;;;;;13.50;10.20;;;2.90;99.90;;;;;;5032150;28;20045;-77
2023/03/06 05:34:49;;;;;;;13.83;9.80;;;2.90;99.90;;;;;;5027219;28;20045;-77
2023/03/06 05:37:16;;;;;;;20.70;12.90;;;2.90;99.90;;;;;;5014719;28;20045;-77
2023/03/06 05:39:42;;;;;;;20.13;12.57;;;3.00;99.90;;;;;;5026225;28;20067;-75
2023/03/06 05:42:08;;;;;;;18.70;14.30;;;3.00;99.90;;;;;;4995860;28;20048;-74
2023/03/06 05:44:35;;;;;;;18.87;13.00;;;3.00;99.90;;;;;;5011129;28;20484;-74
2023/03/06 05:47:02;;;;;;;16.03;11.20;;;3.00;99.90;;;;;;5030910;28;21500;-73
2023/03/06 05:49:33;;;;;;;18.93;14.03;;;3.00;99.90;;;;;;5032616;28;20035;-74
2023/03/06 05:52:04;;;;;;;17.43;11.80;;;3.00;99.90;;;;;;5032007;28;20032;-75
2023/03/06 05:54:31;;;;;;;15.23;11.97;;;3.00;99.90;;;;;;5027363;28;20092;-75
2023/03/06 05:56:58;;;;;;;21.73;13.23;;;3.00;99.90;;;;;;5031560;28;20029;-76
2023/03/06 05:59:27;;;;;;;16.37;11.77;;;3.00;99.90;;;;;;5026750;28;20112;-73
2023/03/06 06:01:55;;;;;;;16.80;10.97;;;3.00;99.90;;;;;;5011709;28;20040;-76
2023/03/06 06:04:22;;;;;;;16.47;10.97;;;3.00;99.90;;;;;;5010700;28;20034;-76
2023/03/06 06:06:58;;;;;;;15.63;10.20;;;3.10;99.90;;;;;;5028325;28;20069;-74
2023/03/06 06:09:25;;;;;;;16.23;9.67;;;3.10;99.90;;;;;;5010173;28;20029;-76
2023/03/06 06:11:54;;;;;;;19.23;12.30;;;3.10;99.90;;;;;;5014552;28;20044;-78
2023/03/06 06:14:20;;;;;;;14.33;9.37;;;3.10;99.90;;;;;;5010418;28;20056;-75
2023/03/06 06:16:47;;;;;;;18.67;11.80;;;3.10;99.90;;;;;;5012652;28;20055;-77
2023/03/06 06:19:17;;;;;;;16.00;10.37;;;3.10;99.90;;;;;;5029352;28;20225;-80
2023/03/06 06:21:46;;;;;;;12.30;8.87;;;3.10;99.90;;;;;;5001029;28;20041;-75
2023/03/06 06:24:13;;;;;;;15.53;10.83;;;3.10;99.90;;;;;;5028670;28;20128;-74
2023/03/06 06:26:40;;;;;;;11.87;8.10;;;3.10;99.90;;;;;;5031815;28;20063;-77
2023/03/06 06:29:06;;;;;;;10.10;7.83;;;3.10;99.90;;;;;;5014099;28;20407;-77
2023/03/06 06:31:33;;;;;;;13.70;8.20;;;3.10;99.90;;;;;;4998067;28;20040;-75
2023/03/06 06:33:59;;;;;;;10.10;6.67;;;3.10;99.90;;;;;;5029031;28;20040;-75
2023/03/06 06:36:25;;;;;;;11.97;8.83;;;3.20;99.90;;;;;;5028568;28;20049;-75
2023/03/06 06:38:51;;;;;;;14.00;9.87;;;3.20;99.90;;;;;;5029761;28;20515;-75
2023/03/06 06:41:18;;;;;;;12.23;8.27;;;3.30;99.90;;;;;;5013296;28;20548;-74
2023/03/06 06:43:44;;;;;;;10.80;7.73;;;3.20;99.90;;;;;;5026979;28;20033;-75
2023/03/06 06:46:10;;;;;;;11.00;7.93;;;3.30;99.90;;;;;;5029040;28;20513;-74
2023/03/06 06:48:37;;;;;;;12.47;8.93;;;3.30;99.90;;;;;;5030301;28;20033;-75
2023/03/06 06:51:03;;;;;;;12.83;9.27;;;3.30;99.90;;;;;;5029837;28;20043;-76
2023/03/06 06:53:30;;;;;;;9.67;6.93;;;3.40;99.90;;;;;;5027663;28;20017;-77
2023/03/06 06:55:59;;;;;;;13.70;8.03;;;3.40;99.90;;;;;;5029166;28;20040;-74
2023/03/06 06:58:26;;;;;;;19.47;11.60;;;3.40;99.90;;;;;;5011815;28;20039;-77
2023/03/06 07:00:52;;;;;;;13.07;8.07;;;3.40;99.90;;;;;;5030221;28;20033;-76
2023/03/06 07:03:19;;;;;;;12.20;8.00;;;3.30;99.90;;;;;;5025655;28;20037;-75
2023/03/06 07:05:52;;;;;;;11.63;8.80;;;3.40;99.90;;;;;;5009259;28;20040;-74
2023/03/06 07:08:18;;;;;;;11.77;7.60;;;3.40;99.90;;;;;;4994256;28;20416;-76
2023/03/06 07:10:45;;;;;;;13.00;7.43;;;3.40;99.90;;;;;;5026444;28;20033;-74
2023/03/06 07:13:11;;;;;;;11.10;6.40;;;3.50;99.90;;;;;;5008069;28;20037;-74
2023/03/06 07:15:37;;;;;;;10.33;6.50;;;3.50;99.90;;;;;;5010860;28;20542;-75
2023/03/06 07:18:03;;;;;;;7.20;6.10;;;3.50;99.90;;;;;;5026658;28;20507;-75
2023/03/06 07:20:30;;;;;;;6.53;4.67;;;3.60;99.90;;;;;;5012679;28;20064;-77
2023/03/06 07:22:57;;;;;;;8.23;6.10;;;3.70;99.90;;;;;;5025519;28;20512;-73
2023/03/06 07:25:23;;;;;;;7.43;5.03;;;3.70;99.90;;;;;;5010661;28;20037;-75
2023/03/06 07:27:51;;;;;;;6.93;5.37;;;3.80;99.90;;;;;;5027384;28;20044;-77
2023/03/06 07:30:18;;;;;;;6.97;5.17;;;3.80;99.90;;;;;;5030142;28;20044;-77
2023/03/06 07:32:44;;;;;;;9.53;6.67;;;3.90;99.90;;;;;;5008788;28;20036;-75
2023/03/06 07:35:15;;;;;;;6.47;4.80;;;4.00;99.90;;;;;;5011153;28;20975;-75
2023/03/06 07:37:42;;;;;;;4.73;4.17;;;4.00;99.90;;;;;;5029904;28;20064;-77
2023/03/06 07:40:09;;;;;;;8.53;4.70;;;4.00;99.90;;;;;;5027863;28;20726;-74
2023/03/06 07:42:35;;;;;;;7.13;4.10;;;4.10;99.90;;;;;;5011649;28;20028;-77
2023/03/06 07:45:03;;;;;;;7.30;4.77;;;4.10;99.90;;;;;;5026361;28;20035;-76
2023/03/06 07:47:30;;;;;;;5.53;3.87;;;4.10;99.90;;;;;;5028802;28;20036;-77
2023/03/06 07:49:57;;;;;;;9.03;4.50;;;4.10;99.90;;;;;;5024634;28;20033;-74
2023/03/06 07:52:24;;;;;;;8.00;4.43;;;4.10;99.90;;;;;;5028179;28;20029;-76
2023/03/06 07:54:50;;;;;;;5.93;3.60;;;4.10;99.90;;;;;;5006943;28;20041;-74
2023/03/06 07:57:17;;;;;;;4.60;3.35;;;4.20;99.90;;;;;;5027504;28;20028;-77
2023/03/06 07:59:43;;;;;;;5.63;2.83;;;4.30;99.90;;;;;;5024765;28;20067;-78
2023/03/06 08:02:11;;;;;;;7.45;4.53;;;4.30;99.90;;;;;;5009223;28;20332;-74
2023/03/06 08:04:37;;;;;;;6.50;3.80;;;4.30;99.90;;;;;;5021967;28;20037;-77
2023/03/06 08:07:04;;;;;;;5.27;3.53;;;4.40;99.90;;;;;;5005537;28;20441;-78
2023/03/06 08:09:30;;;;;;;6.07;2.80;;;4.50;99.90;;;;;;5024941;28;20426;-77
2023/03/06 08:11:56;;;;;;;3.87;2.10;;;4.60;99.90;;;;;;5026652;28;20032;-72
2023/03/06 08:14:23;;;;;;;5.70;2.73;;;4.60;99.90;;;;;;5022342;28;20041;-73
2023/03/06 08:16:50;;;;;;;3.33;2.00;;;4.80;99.90;;;;;;5009367;28;20718;-77
2023/03/06 08:19:16;;;;;;;5.33;2.87;;;4.80;99.90;;;;;;5023924;28;20044;-76
2023/03/06 08:21:43;;;;;;;3.85;1.85;;;4.80;99.90;;;;;;4995713;28;20044;-77
2023/03/06 08:24:09;;;;;;;2.78;1.92;;;4.90;99.90;;;;;;5025169;28;20032;-76
2023/03/06 08:26:35;;;;;;;3.00;1.83;;;4.90;99.90;;;;;;5027476;28;20033;-77
2023/03/06 08:29:02;;;;;;;4.27;1.83;;;5.00;99.90;;;;;;5008583;28;20042;-77
2023/03/06 08:31:36;;;;;;;2.83;0.93;;;5.10;99.90;;;;;;5029138;28;20371;-76
2023/03/06 08:34:05;;;;;;;3.57;1.20;;;5.20;99.90;;;;;;5026174;28;20060;-78
2023/03/06 08:36:32;;;;;;;3.38;1.27;;;5.20;99.90;;;;;;5028545;28;20037;-75
2023/03/06 08:38:59;;;;;;;3.17;0.82;;;5.30;99.90;;;;;;5026886;28;20036;-77
2023/03/06 08:41:25;;;;;;;2.72;1.10;;;5.40;99.90;;;;;;5014132;28;20715;-76
2023/03/06 08:43:52;;;;;;;2.28;0.80;;;5.60;99.90;;;;;;5015238;28;20843;-76
2023/03/06 08:46:21;;;;;;;3.08;0.70;;;5.70;99.90;;;;;;5032237;28;20040;-79
2023/03/06 08:48:47;;;;;;;1.58;0.55;;;5.90;99.90;;;;;;5031664;28;20051;-79
2023/03/06 08:51:14;;;;;;;1.10;0.55;;;6.10;99.90;;;;;;5032993;28;20032;-73
2023/03/06 08:53:40;;;;;;;1.92;0.50;;;6.10;99.90;;;;;;5029750;28;20427;-77
2023/03/06 08:56:13;;;;;;;1.75;0.70;;;6.10;99.90;;;;;;5032498;28;20045;-75
2023/03/06 08:58:39;;;;;;;1.73;0.55;;;6.10;99.90;;;;;;5031638;28;20029;-74
2023/03/06 09:01:14;;;;;;;2.92;0.60;;;6.10;99.90;;;;;;5000774;28;20040;-78
2023/03/06 09:03:41;;;;;;;1.08;0.40;;;6.10;99.90;;;;;;4996472;28;20036;-76
2023/03/06 09:06:07;;;;;;;1.55;0.60;;;6.20;99.90;;;;;;5014401;28;20037;-76
2023/03/06 09:08:34;;;;;;;1.00;0.40;;;6.30;99.90;;;;;;4996611;28;20048;-78
2023/03/06 09:11:00;;;;;;;0.98;0.40;;;6.40;99.90;;;;;;5033582;28;20029;-76
2023/03/06 09:13:26;;;;;;;2.97;0.57;;;6.40;99.90;;;;;;5029302;28;21920;-79
2023/03/06 09:15:53;;;;;;;1.85;0.50;;;6.40;99.90;;;;;;5012020;28;20056;-77
2023/03/06 09:18:19;;;;;;;0.50;0.30;;;6.30;99.90;;;;;;5028891;28;20089;-78
2023/03/06 09:20:46;;;;;;;1.00;0.50;;;6.30;99.90;;;;;;5013351;28;20086;-76
2023/03/06 09:23:13;;;;;;;1.80;0.30;;;6.30;99.90;;;;;;5029283;28;20401;-77
2023/03/06 09:25:39;;;;;;;0.80;0.35;;;6.40;99.90;;;;;;5027261;28;20044;-79
2023/03/06 09:28:05;;;;;;;1.10;0.40;;;6.40;99.90;;;;;;5030205;28;20044;-74
2023/03/06 09:30:31;;;;;;;1.95;0.40;;;6.40;99.90;;;;;;5032955;28;20380;-80
2023/03/06 09:32:58;;;;;;;0.85;0.30;;;6.40;99.90;;;;;;5028884;28;20025;-75
2023/03/06 09:35:24;;;;;;;1.63;0.20;;;6.50;99.90;;;;;;5015250;28;20043;-79
2023/03/06 09:37:50;;;;;;;1.02;0.45;;;6.60;99.90;;;;;;5015395;28;20040;-77
2023/03/06 09:40:32;;;;;;;0.82;0.20;;;6.60;99.90;;;;;;5030923;28;20030;-79
2023/03/06 09:42:59;;;;;;;0.70;0.22;;;6.60;99.90;;;;;;5028619;28;20924;-80
2023/03/06 09:45:26;;;;;;;1.00;0.30;;;6.60;99.90;;;;;;5030545;28;20040;-76
2023/03/06 09:48:05;;;;;;;1.58;0.30;;;6.80;99.90;;;;;;5029533;28;20040;-74
2023/03/06 09:50:56;;;;;;;0.82;0.20;;;7.00;99.90;;;;;;5013784;28;20415;-76
2023/03/06 09:54:03;;;;;;;0.30;0.17;;;7.20;99.90;;;;;;5029323;28;20025;-77
2023/03/06 09:56:33;;;;;;;0.75;0.22;;;7.20;99.90;;;;;;5030143;28;20029;-77
2023/03/06 09:59:10;;;;;;;0.52;0.13;;;7.30;99.90;;;;;;4996984;28;20037;-77
2023/03/06 10:01:40;;;;;;;1.90;0.20;;;7.30;99.90;;;;;;5032062;28;22980;-74
2023/03/06 10:04:29;;;;;;;0.82;0.20;;;7.40;99.90;;;;;;5009709;28;20068;-73
2023/03/06 10:07:00;;;;;;;0.95;0.30;;;7.40;99.90;;;;;;5031023;28;20040;-77
2023/03/06 10:09:30;;;;;;;0.65;0.20;;;7.50;99.90;;;;;;5031104;28;20562;-77
2023/03/06 10:12:02;;;;;;;0.40;0.10;;;7.60;99.90;;;;;;4999521;28;20032;-78
2023/03/06 10:14:43;;;;;;;0.40;0.10;;;7.70;99.90;;;;;;5027702;28;20160;-76
2023/03/06 10:17:17;;;;;;;1.75;0.20;;;7.90;99.90;;;;;;5030222;28;20037;-77
2023/03/06 10:19:46;;;;;;;2.15;0.45;;;8.10;99.90;;;;;;5030570;28;20055;-77
2023/03/06 10:22:37;;;;;;;0.45;0.10;;;8.40;99.90;;;;;;5016042;28;20043;-74
2023/03/06 10:25:09;;;;;;;0.75;0.10;;;8.70;99.90;;;;;;5029474;28;20043;-74
2023/03/06 10:27:47;;;;;;;0.30;0.10;;;9.10;99.90;;;;;;5028088;28;20032;-74
2023/03/06 10:30:47;;;;;;;0.75;0.10;;;9.50;99.90;;;;;;5014938;28;20052;-75
2023/03/06 10:33:44;;;;;;;0.25;0.10;;;9.70;99.90;;;;;;4996284;28;20051;-75
2023/03/06 10:36:14;;;;;;;0.57;0.10;;;9.50;99.90;;;;;;5026772;28;20047;-78
2023/03/06 10:38:43;;;;;;;0.22;0.05;;;9.20;99.90;;;;;;5027159;28;20045;-75
2023/03/06 10:41:12;;;;;;;0.55;0.10;;;9.00;99.90;;;;;;5030891;28;20032;-78
2023/03/06 10:44:01;;;;;;;1.17;0.10;;;8.90;99.90;;;;;;5030022;28;20359;-74
2023/03/06 10:46:29;;;;;;;0.38;0.10;;;9.20;99.90;;;;;;5028341;28;20064;-78
2023/03/06 10:49:01;;;;;;;0.75;0.10;;;9.70;99.90;;;;;;5011876;28;20036;-76
2023/03/06 10:51:29;;;;;;;0.50;0.10;;;10.20;99.90;;;;;;5011724;28;20033;-77
2023/03/06 10:54:01;;;;;;;0.13;0.10;;;10.60;99.90;;;;;;5013954;28;20021;-76
2023/03/06 10:56:38;;;;;;;1.63;0.10;;;11.00;99.90;;;;;;5029618;28;20033;-78
2023/03/06 10:59:12;;;;;;;1.17;0.30;;;11.20;99.90;;;;;;5025805;28;20499;-77
2023/03/06 11:01:40;;;;;;;0.77;0.10;;;11.40;99.90;;;;;;5030570;28;20037;-78
2023/03/06 11:04:22;;;;;;;0.50;0.10;;;11.60;99.90;;;;;;5024937;28;20136;-76
2023/03/06 11:07:22;;;;;;;0.70;0.10;;;11.80;99.90;;;;;;5028707;28;20067;-76
2023/03/06 11:09:57;;;;;;;0.40;0.10;;;12.00;99.90;;;;;;5012744;28;20048;-77
2023/03/06 11:12:33;;;;;;;0.15;0.10;;;12.10;99.90;;;;;;5029310;28;20048;-76
2023/03/06 11:15:17;;;;;;;0.30;0.10;;;12.20;99.90;;;;;;5008454;28;20049;-78
2023/03/06 11:18:07;;;;;;;0.40;0.10;;;12.40;99.90;;;;;;5026729;28;20408;-76
2023/03/06 11:20:54;;;;;;;0.40;0.03;;;12.40;99.90;;;;;;5017339;28;20049;-78
2023/03/06 11:23:42;;;;;;;0.43;0.10;;;12.60;98.90;;;;;;5026689;28;20464;-75
2023/03/06 11:26:15;;;;;;;0.82;0.10;;;12.70;99.20;;;;;;5025929;28;20025;-74
2023/03/06 11:28:48;;;;;;;0.20;0.10;;;13.10;98.50;;;;;;5027267;28;20047;-78
2023/03/06 11:31:24;;;;;;;0.65;0.00;;;13.20;97.00;;;;;;5031011;28;20502;-78
2023/03/06 11:34:01;;;;;;;0.35;0.10;;;13.20;96.90;;;;;;5010029;28;20041;-77
2023/03/06 11:36:52;;;;;;;0.25;0.03;;;13.40;96.20;;;;;;5027680;28;20033;-74
2023/03/06 11:39:44;;;;;;;0.32;0.00;;;13.60;95.90;;;;;;5026862;28;20036;-79
2023/03/06 11:42:28;;;;;;;0.57;0.10;;;13.70;96.10;;;;;;5028794;28;20029;-73
2023/03/06 11:45:27;;;;;;;0.60;0.10;;;13.40;95.30;;;;;;5029069;28;20586;-77
2023/03/06 11:48:02;;;;;;;0.30;0.08;;;12.80;95.00;;;;;;5013245;28;20051;-79
2023/03/06 11:51:09;;;;;;;0.88;0.03;;;12.20;95.30;;;;;;5014104;28;20041;-78
2023/03/06 11:53:38;;;;;;;0.73;0.10;;;11.80;95.70;;;;;;5021345;28;20526;-76
2023/03/06 11:56:33;;;;;;;0.98;0.20;;;11.60;95.70;;;;;;5027355;28;20032;-74
2023/03/06 11:59:27;;;;;;;0.35;0.20;;;11.40;95.40;;;;;;5026604;28;20040;-73
2023/03/06 12:02:31;;;;;;;0.85;0.30;;;11.30;95.60;;;;;;5027533;28;20060;-76
2023/03/06 12:05:22;;;;;;;0.50;0.20;;;11.00;94.60;;;;;;5008163;28;20041;-76
2023/03/06 12:08:16;;;;;;;0.30;0.10;;;10.70;94.40;;;;;;5027055;28;20044;-76
2023/03/06 12:10:47;;;;;;;0.60;0.20;;;10.50;94.50;;;;;;4995937;28;20056;-76
2023/03/06 12:13:38;;;;;;;0.80;0.10;;;10.30;94.60;;;;;;5007836;28;20037;-77
2023/03/06 12:16:23;;;;;;;0.60;0.10;;;10.20;94.60;;;;;;5030275;28;20049;-77
2023/03/06 12:18:53;;;;;;;1.27;0.00;;;10.30;94.80;;;;;;5026547;28;20048;-76
2023/03/06 12:21:31;;;;;;;1.05;0.10;;;10.70;94.50;;;;;;5029113;28;20040;-73
2023/03/06 12:24:00;;;;;;;1.67;0.10;;;10.70;94.00;;;;;;5025332;28;20021;-78
2023/03/06 12:26:41;;;;;;;0.30;0.10;;;10.90;93.70;;;;;;5030463;28;20044;-76
2023/03/06 12:29:13;;;;;;;1.27;0.10;;;10.90;93.80;;;;;;5025211;28;20029;-78
2023/03/06 12:31:52;;;;;;;0.93;0.20;;;11.10;93.80;;;;;;5009791;28;20063;-75
2023/03/06 12:34:37;;;;;;;1.00;0.20;;;11.10;93.60;;;;;;5017308;28;20037;-77
2023/03/06 12:37:10;;;;;;;2.92;0.10;;;10.90;93.10;;;;;;5006320;28;20550;-75
2023/03/06 12:40:14;;;;;;;0.55;0.10;;;10.80;93.20;;;;;;5021727;28;20404;-76
2023/03/06 12:43:19;;;;;;;0.60;0.10;;;10.60;93.40;;;;;;5022538;28;20037;-74
2023/03/06 12:45:48;;;;;;;0.70;0.20;;;11.20;94.00;;;;;;5008237;28;20068;-74
2023/03/06 12:48:25;;;;;;;0.65;0.13;;;11.70;93.90;;;;;;5004983;28;20033;-76
2023/03/06 12:50:52;;;;;;;1.40;0.50;;;11.90;93.70;;;;;;5026549;28;20017;-76
2023/03/06 12:53:30;;;;;;;0.70;0.25;;;12.30;93.60;;;;;;5022318;28;20434;-77
2023/03/06 12:56:00;;;;;;;0.80;0.13;;;12.80;93.00;;;;;;5026428;28;20021;-74
2023/03/06 12:58:29;;;;;;;1.45;0.20;;;13.30;91.90;;;;;;5038731;28;20028;-77
2023/03/06 13:01:33;;;;;;;2.38;0.20;;;13.90;91.80;;;;;;4993974;28;20511;-75
2023/03/06 13:04:38;;;;;;;0.60;0.20;;;14.60;90.90;;;;;;5020382;28;20041;-76
2023/03/06 13:07:21;;;;;;;0.28;0.10;;;15.10;90.50;;;;;;4964700;28;20323;-76
2023/03/06 13:10:12;;;;;;;3.92;0.20;;;15.40;90.20;;;;;;5025592;28;20044;-77